createdAt,value
2022-11-08T00:01:04.957Z,7.06
2022-11-08T00:03:31.467Z,7.07
2022-11-08T00:05:59.670Z,7.11
2022-11-08T00:08:26.181Z,7.10
2022-11-08T00:10:53.029Z,7.12
2022-11-08T00:13:19.571Z,7.15
2022-11-08T00:15:46.157Z,7.13
2022-11-08T00:18:12.788Z,6.99
2022-11-08T00:20:39.335Z,6.97
2022-11-08T00:23:08.353Z,7.18
2022-11-08T00:25:34.949Z,7.02
2022-11-08T00:28:01.469Z,7.27
2022-11-08T00:30:28.153Z,7.30
2022-11-08T00:32:54.686Z,7.29
2022-11-08T00:35:21.273Z,7.32
2022-11-08T00:37:47.749Z,7.20
2022-11-08T00:40:15.794Z,7.30
2022-11-08T00:42:42.314Z,7.29
2022-11-08T00:45:09.254Z,7.30
2022-11-08T00:47:36.070Z,7.35
2022-11-08T00:50:02.643Z,7.36
2022-11-08T00:52:29.149Z,7.40
2022-11-08T00:54:55.717Z,7.37
2022-11-08T00:57:40.867Z,7.36
2022-11-08T01:00:12.784Z,7.36
2022-11-08T01:02:39.593Z,7.39
2022-11-08T01:05:06.670Z,7.16
2022-11-08T01:07:33.874Z,7.37
2022-11-08T01:10:00.446Z,7.38
2022-11-08T01:12:28.298Z,7.37
2022-11-08T01:14:54.958Z,7.36
2022-11-08T01:17:21.479Z,7.38
2022-11-08T01:19:48.217Z,7.39
2022-11-08T01:22:14.789Z,7.40
2022-11-08T01:24:41.350Z,6.32
2022-11-08T01:27:07.849Z,7.41
2022-11-08T01:29:35.924Z,7.37
2022-11-08T01:32:02.426Z,7.42
2022-11-08T01:34:28.985Z,7.36
2022-11-08T01:36:55.502Z,7.49
2022-11-08T01:39:22.102Z,7.56
2022-11-08T01:41:48.608Z,7.62
2022-11-08T01:44:17.279Z,7.53
2022-11-08T01:46:48.413Z,7.59
2022-11-08T01:49:42.535Z,7.78
2022-11-08T01:52:26.441Z,7.63
2022-11-08T01:55:06.492Z,7.86
2022-11-08T01:57:37.965Z,7.92
2022-11-08T02:00:07.911Z,7.72
2022-11-08T02:02:37.763Z,7.95
2022-11-08T02:05:08.664Z,7.91
2022-11-08T02:07:35.274Z,7.90
2022-11-08T02:10:03.072Z,7.90
2022-11-08T02:12:30.076Z,7.92
2022-11-08T02:14:56.800Z,7.89
2022-11-08T02:17:23.398Z,7.85
2022-11-08T02:19:51.333Z,7.84
2022-11-08T02:22:26.101Z,7.79
2022-11-08T02:24:54.420Z,7.73
2022-11-08T02:27:21.037Z,7.71
2022-11-08T02:29:47.585Z,7.62
2022-11-08T02:32:14.116Z,7.50
2022-11-08T02:34:44.180Z,7.56
2022-11-08T02:37:13.326Z,7.47
2022-11-08T02:39:39.867Z,7.45
2022-11-08T02:42:12.294Z,7.41
2022-11-08T02:44:38.884Z,7.37
2022-11-08T02:47:05.535Z,7.34
2022-11-08T02:49:32.196Z,7.31
2022-11-08T02:51:58.737Z,7.29
2022-11-08T02:54:25.433Z,7.25
2022-11-08T02:56:51.943Z,7.21
2022-11-08T02:59:20.075Z,7.19
2022-11-08T03:01:46.750Z,7.15
2022-11-08T03:04:13.584Z,6.87
2022-11-08T03:06:40.207Z,7.07
2022-11-08T03:09:06.918Z,7.04
2022-11-08T03:11:33.542Z,7.02
2022-11-08T03:14:00.119Z,6.98
2022-11-08T03:16:28.067Z,6.98
2022-11-08T03:18:54.697Z,6.91
2022-11-08T03:21:22.752Z,6.89
2022-11-08T03:23:49.697Z,6.71
2022-11-08T03:26:16.237Z,6.86
2022-11-08T03:28:42.853Z,6.79
2022-11-08T03:31:09.444Z,6.58
2022-11-08T03:33:37.449Z,6.27
2022-11-08T03:36:04.631Z,6.66
2022-11-08T03:38:31.276Z,6.64
2022-11-08T03:40:57.785Z,6.60
2022-11-08T03:43:25.572Z,6.58
2022-11-08T03:45:52.114Z,6.54
2022-11-08T03:48:19.051Z,6.55
2022-11-08T03:50:47.109Z,6.54
2022-11-08T03:53:13.687Z,6.52
2022-11-08T03:55:40.986Z,6.47
2022-11-08T03:58:07.568Z,6.45
2022-11-08T04:00:34.225Z,6.43
2022-11-08T04:03:02.249Z,6.32
2022-11-08T04:05:29.392Z,6.37
2022-11-08T04:07:57.479Z,6.34
2022-11-08T04:10:24.166Z,6.23
2022-11-08T04:12:50.720Z,6.17
2022-11-08T04:15:20.178Z,6.32
2022-11-08T04:17:47.801Z,6.32
2022-11-08T04:20:14.374Z,6.34
2022-11-08T04:22:40.963Z,6.37
2022-11-08T04:25:09.255Z,6.11
2022-11-08T04:27:35.846Z,6.35
2022-11-08T04:30:02.443Z,6.34
2022-11-08T04:32:29.045Z,6.30
2022-11-08T04:34:55.537Z,6.28
2022-11-08T04:37:22.128Z,6.32
2022-11-08T04:39:48.628Z,6.35
2022-11-08T04:42:16.515Z,6.38
2022-11-08T04:44:43.053Z,6.35
2022-11-08T04:47:09.645Z,6.52
2022-11-08T04:49:36.146Z,6.61
2022-11-08T04:52:02.818Z,6.60
2022-11-08T04:54:29.301Z,6.65
2022-11-08T04:56:55.887Z,6.65
2022-11-08T04:59:24.035Z,6.78
2022-11-08T05:01:50.696Z,6.80
2022-11-08T05:04:17.421Z,6.66
2022-11-08T05:06:44.098Z,6.84
2022-11-08T05:09:10.619Z,6.74
2022-11-08T05:11:37.187Z,6.88
2022-11-08T05:14:03.704Z,6.57
2022-11-08T05:16:31.777Z,6.89
2022-11-08T05:18:58.842Z,6.89
2022-11-08T05:21:26.000Z,6.89
2022-11-08T05:23:52.505Z,6.89
2022-11-08T05:26:20.018Z,6.87
2022-11-08T05:28:46.712Z,6.90
2022-11-08T05:31:13.333Z,6.95
2022-11-08T05:33:41.217Z,6.92
2022-11-08T05:36:10.375Z,6.82
2022-11-08T05:38:37.959Z,6.85
2022-11-08T05:41:05.789Z,6.85
2022-11-08T05:43:32.638Z,6.85
2022-11-08T05:45:59.326Z,6.80
2022-11-08T05:48:25.907Z,6.60
2022-11-08T05:50:54.177Z,6.75
2022-11-08T05:53:21.412Z,6.69
2022-11-08T05:55:48.833Z,6.62
2022-11-08T05:58:15.849Z,6.69
2022-11-08T06:00:42.430Z,6.37
2022-11-08T06:03:09.033Z,6.71
2022-11-08T06:05:35.762Z,6.74
2022-11-08T06:08:22.572Z,6.67
2022-11-08T06:10:49.288Z,6.69
2022-11-08T06:13:16.012Z,6.91
2022-11-08T06:15:42.578Z,6.95
2022-11-08T06:18:09.138Z,6.99
2022-11-08T06:20:36.207Z,7.18
2022-11-08T06:23:02.713Z,7.17
2022-11-08T06:25:30.880Z,7.25
2022-11-08T06:27:59.740Z,7.19
2022-11-08T06:30:26.369Z,7.26
2022-11-08T06:32:53.041Z,7.08
2022-11-08T06:35:19.597Z,7.32
2022-11-08T06:37:46.997Z,7.31
2022-11-08T06:40:13.590Z,7.35
2022-11-08T06:42:41.416Z,7.44
2022-11-08T06:45:08.460Z,7.56
2022-11-08T06:47:34.993Z,7.68
2022-11-08T06:50:01.577Z,7.84
2022-11-08T06:52:28.079Z,7.99
2022-11-08T06:54:54.619Z,8.02
2022-11-08T06:57:21.111Z,8.07
2022-11-08T06:59:49.099Z,8.09
2022-11-08T07:02:15.690Z,8.09
2022-11-08T07:04:42.281Z,7.95
2022-11-08T07:07:08.791Z,8.08
2022-11-08T07:09:35.409Z,8.31
2022-11-08T07:12:01.908Z,8.41
2022-11-08T07:14:28.474Z,8.49
2022-11-08T07:16:56.437Z,8.47
2022-11-08T07:19:23.003Z,8.48
2022-11-08T07:21:49.498Z,8.47
2022-11-08T07:24:16.074Z,8.45
2022-11-08T07:26:42.605Z,8.50
2022-11-08T07:29:13.357Z,8.75
2022-11-08T07:31:42.347Z,8.78
2022-11-08T07:34:10.218Z,8.76
2022-11-08T07:36:36.821Z,8.84
2022-11-08T07:39:06.644Z,8.80
2022-11-08T07:41:33.546Z,9.05
2022-11-08T07:44:00.091Z,9.10
2022-11-08T07:46:26.889Z,9.18
2022-11-08T07:48:53.403Z,9.20
2022-11-08T07:51:21.324Z,9.43
2022-11-08T07:53:47.843Z,9.55
2022-11-08T07:56:14.455Z,9.46
2022-11-08T07:58:40.936Z,9.61
2022-11-08T08:01:07.548Z,9.70
2022-11-08T08:03:34.191Z,9.82
2022-11-08T08:06:03.953Z,9.89
2022-11-08T08:08:31.904Z,9.91
2022-11-08T08:11:00.085Z,9.99
2022-11-08T08:13:27.035Z,10.01
2022-11-08T08:15:53.589Z,10.05
2022-11-08T08:18:20.081Z,10.05
2022-11-08T08:20:47.104Z,10.11
2022-11-08T08:23:13.693Z,10.39
2022-11-08T08:25:41.569Z,10.43
2022-11-08T08:28:09.808Z,10.34
2022-11-08T08:30:36.342Z,10.53
2022-11-08T08:35:53.020Z,10.62
2022-11-08T08:38:19.513Z,10.73
2022-11-08T08:40:47.471Z,10.84
2022-11-08T08:43:13.998Z,10.92
2022-11-08T08:45:40.662Z,10.95
2022-11-08T08:48:07.172Z,11.05
2022-11-08T08:50:33.784Z,11.10
2022-11-08T08:53:01.786Z,11.13
2022-11-08T08:55:28.765Z,11.21
2022-11-08T08:57:57.208Z,11.26
2022-11-08T09:03:11.401Z,11.32
2022-11-08T09:05:39.163Z,11.36
2022-11-08T09:08:06.004Z,11.53
2022-11-08T09:10:32.577Z,11.63
2022-11-08T09:13:01.243Z,11.59
2022-11-08T09:15:27.754Z,11.82
2022-11-08T09:17:54.554Z,11.89
2022-11-08T09:20:21.192Z,11.97
2022-11-08T09:22:48.046Z,12.06
2022-11-08T09:25:14.898Z,12.15
2022-11-08T09:27:41.520Z,12.14
2022-11-08T09:30:10.422Z,12.18
2022-11-08T09:32:59.192Z,12.34
2022-11-08T09:35:24.050Z,12.29
2022-11-08T09:37:52.882Z,12.39
2022-11-08T09:40:23.891Z,12.26
2022-11-08T09:43:02.586Z,12.55
2022-11-08T09:45:34.226Z,12.57
2022-11-08T09:48:05.364Z,12.37
2022-11-08T09:50:38.203Z,12.52
2022-11-08T09:53:16.099Z,12.55
2022-11-08T09:55:47.257Z,12.62
2022-11-08T09:58:21.353Z,12.61
2022-11-08T10:00:49.328Z,12.65
2022-11-08T10:03:17.572Z,12.74
2022-11-08T10:05:55.572Z,12.70
2022-11-08T10:08:29.952Z,12.72
2022-11-08T10:11:14.364Z,12.81
2022-11-08T10:13:52.198Z,12.74
2022-11-08T10:16:28.550Z,12.77
2022-11-08T10:19:13.840Z,12.81
2022-11-08T10:21:55.166Z,12.87
2022-11-08T10:24:32.024Z,12.94
2022-11-08T10:27:00.383Z,12.94
2022-11-08T10:29:32.296Z,12.94
2022-11-08T10:32:05.705Z,13.04
2022-11-08T10:34:41.176Z,12.95
2022-11-08T10:37:13.240Z,12.92
2022-11-08T10:39:48.650Z,12.95
2022-11-08T10:42:22.003Z,13.00
2022-11-08T10:44:48.766Z,13.13
2022-11-08T10:47:23.296Z,13.07
2022-11-08T10:49:50.136Z,13.15
2022-11-08T10:52:20.095Z,13.05
2022-11-08T10:54:49.492Z,13.26
2022-11-08T10:57:22.288Z,13.19
2022-11-08T10:59:48.943Z,13.18
2022-11-08T11:02:29.168Z,13.25
2022-11-08T11:05:22.524Z,13.17
2022-11-08T11:08:02.372Z,13.16
2022-11-08T11:10:31.364Z,13.30
2022-11-08T11:13:04.173Z,13.20
2022-11-08T11:15:32.574Z,13.31
2022-11-08T11:18:00.462Z,13.39
2022-11-08T11:20:27.181Z,13.11
2022-11-08T11:22:54.128Z,13.32
2022-11-08T11:25:23.340Z,13.45
2022-11-08T11:27:54.297Z,13.47
2022-11-08T11:30:27.512Z,13.35
2022-11-08T11:33:01.827Z,13.50
2022-11-08T11:35:38.278Z,13.34
2022-11-08T11:38:12.782Z,13.45
2022-11-08T11:40:43.882Z,13.24
2022-11-08T11:43:16.452Z,13.41
2022-11-08T11:45:47.491Z,13.36
2022-11-08T11:48:19.174Z,13.42
2022-11-08T11:50:48.335Z,13.46
2022-11-08T11:53:19.298Z,13.38
2022-11-08T11:56:09.384Z,13.36
2022-11-08T11:58:57.074Z,13.53
2022-11-08T12:01:47.871Z,13.35
2022-11-08T12:04:34.194Z,13.44
2022-11-08T12:07:05.960Z,13.44
2022-11-08T12:09:48.252Z,13.52
2022-11-08T12:12:26.802Z,13.34
2022-11-08T12:15:00.169Z,13.60
2022-11-08T12:17:46.887Z,13.69
2022-11-08T12:20:36.423Z,13.90
2022-11-08T12:23:33.277Z,13.93
2022-11-08T12:26:08.744Z,14.06
2022-11-08T12:28:45.549Z,14.11
2022-11-08T12:31:23.079Z,14.25
2022-11-08T12:34:01.469Z,14.31
2022-11-08T12:36:35.558Z,14.30
2022-11-08T12:39:09.599Z,14.43
2022-11-08T12:41:47.570Z,14.41
2022-11-08T12:44:36.461Z,14.43
2022-11-08T12:47:16.899Z,14.52
2022-11-08T12:49:56.362Z,14.56
2022-11-08T12:52:40.949Z,14.55
2022-11-08T12:55:13.862Z,14.49
2022-11-08T12:57:41.513Z,14.60
2022-11-08T13:00:16.129Z,14.56
2022-11-08T13:02:46.432Z,14.52
2022-11-08T13:05:20.634Z,14.53
2022-11-08T13:07:55.189Z,14.49
2022-11-08T13:10:30.907Z,14.61
2022-11-08T13:13:07.924Z,14.53
2022-11-08T13:15:34.746Z,14.37
2022-11-08T13:18:32.994Z,14.43
2022-11-08T13:20:59.610Z,14.47
2022-11-08T13:23:31.352Z,14.53
2022-11-08T13:26:19.349Z,14.47
2022-11-08T13:28:46.657Z,14.62
2022-11-08T13:31:20.619Z,14.56
2022-11-08T13:34:06.951Z,14.53
2022-11-08T13:36:46.845Z,14.64
2022-11-08T13:39:33.016Z,14.65
2022-11-08T13:42:03.694Z,14.78
2022-11-08T13:44:58.305Z,14.74
2022-11-08T13:47:52.357Z,14.74
2022-11-08T13:51:01.595Z,14.72
2022-11-08T13:53:53.193Z,14.70
2022-11-08T13:56:46.364Z,14.73
2022-11-08T13:59:48.614Z,14.69
2022-11-08T14:02:37.577Z,14.65
2022-11-08T14:05:27.685Z,14.57
2022-11-08T14:08:16.860Z,14.59
2022-11-08T14:11:03.482Z,14.63
2022-11-08T14:13:38.001Z,14.62
2022-11-08T14:16:08.926Z,14.64
2022-11-08T14:18:36.379Z,14.55
2022-11-08T14:21:04.792Z,14.63
2022-11-08T14:23:34.245Z,14.71
2022-11-08T14:26:03.155Z,14.59
2022-11-08T14:28:34.804Z,14.71
2022-11-08T14:31:04.453Z,14.71
2022-11-08T14:33:32.494Z,14.68
2022-11-08T14:36:01.121Z,14.56
2022-11-08T14:38:29.412Z,14.68
2022-11-08T14:40:59.334Z,14.65
2022-11-08T14:43:26.925Z,14.54
2022-11-08T14:45:55.610Z,14.55
2022-11-08T14:48:24.257Z,14.50
2022-11-08T14:50:58.538Z,14.38
2022-11-08T14:53:27.018Z,14.42
2022-11-08T14:55:57.050Z,14.38
2022-11-08T14:58:27.811Z,14.33
2022-11-08T15:00:57.359Z,14.29
2022-11-08T15:03:29.603Z,14.27
2022-11-08T15:05:59.201Z,14.29
2022-11-08T15:08:28.660Z,14.20
2022-11-08T15:10:57.882Z,14.15
2022-11-08T15:13:27.084Z,14.02
2022-11-08T15:16:00.099Z,14.06
2022-11-08T15:18:28.556Z,14.02
2022-11-08T15:20:56.764Z,13.96
2022-11-08T15:23:26.177Z,13.75
2022-11-08T15:25:57.608Z,13.87
2022-11-08T15:28:25.477Z,13.80
2022-11-08T15:30:57.089Z,13.70
2022-11-08T15:33:25.555Z,13.75
2022-11-08T15:35:52.515Z,13.69
2022-11-08T15:38:29.198Z,13.63
2022-11-08T15:40:57.697Z,13.53
2022-11-08T15:43:36.438Z,13.48
2022-11-08T15:46:05.752Z,13.56
2022-11-08T15:48:32.702Z,13.54
2022-11-08T15:50:59.559Z,13.45
2022-11-08T15:53:27.704Z,13.41
2022-11-08T15:55:57.769Z,13.39
2022-11-08T15:58:27.459Z,13.20
2022-11-08T16:00:54.966Z,13.16
2022-11-08T16:03:23.041Z,13.27
2022-11-08T16:05:49.645Z,13.25
2022-11-08T16:08:20.310Z,13.25
2022-11-08T16:10:49.447Z,13.24
2022-11-08T16:13:19.472Z,13.24
2022-11-08T16:15:45.995Z,13.19
2022-11-08T16:18:12.967Z,13.16
2022-11-08T16:20:41.205Z,13.13
2022-11-08T16:23:09.590Z,13.12
2022-11-08T16:25:38.693Z,13.09
2022-11-08T16:28:11.645Z,13.07
2022-11-08T16:30:38.235Z,13.07
2022-11-08T16:33:18.466Z,13.03
2022-11-08T16:35:46.795Z,13.02
2022-11-08T16:38:13.329Z,12.83
2022-11-08T16:40:39.978Z,12.93
2022-11-08T16:43:10.380Z,13.00
2022-11-08T16:46:03.717Z,12.81
2022-11-08T16:48:26.364Z,12.95
2022-11-08T16:50:58.589Z,12.90
2022-11-08T16:53:25.540Z,12.85
2022-11-08T16:55:52.098Z,12.87
2022-11-08T16:58:18.915Z,12.89
2022-11-08T17:00:45.861Z,12.84
2022-11-08T17:03:16.579Z,12.85
2022-11-08T17:05:43.242Z,12.67
2022-11-08T17:08:11.348Z,12.88
2022-11-08T17:10:38.393Z,12.89
2022-11-08T17:13:04.939Z,12.80
2022-11-08T17:15:31.935Z,12.76
2022-11-08T17:17:59.012Z,12.73
2022-11-08T17:20:26.314Z,12.75
2022-11-08T17:22:54.438Z,12.66
2022-11-08T17:25:24.028Z,12.78
2022-11-08T17:27:52.430Z,12.77
2022-11-08T17:30:25.419Z,12.78
2022-11-08T17:32:53.385Z,12.78
2022-11-08T17:35:20.325Z,12.76
2022-11-08T17:38:06.150Z,12.81
2022-11-08T17:40:34.100Z,12.84
2022-11-08T17:43:00.628Z,12.78
2022-11-08T17:45:27.282Z,12.88
2022-11-08T17:47:53.849Z,12.18
2022-11-08T17:50:20.497Z,12.64
2022-11-08T17:52:47.423Z,12.85
2022-11-08T17:55:14.400Z,12.65
2022-11-08T17:57:42.260Z,12.83
2022-11-08T18:00:11.144Z,12.79
2022-11-08T18:02:39.129Z,12.79
2022-11-08T18:05:06.221Z,12.84
2022-11-08T18:07:32.804Z,12.79
2022-11-08T18:09:59.367Z,12.82
2022-11-08T18:12:26.405Z,12.76
2022-11-08T18:14:54.624Z,12.74
2022-11-08T18:17:21.137Z,12.72
2022-11-08T18:19:47.985Z,12.57
2022-11-08T18:22:14.588Z,12.70
2022-11-08T18:24:43.600Z,12.63
2022-11-08T18:27:12.306Z,12.67
2022-11-08T18:29:38.905Z,12.65
2022-11-08T18:32:06.906Z,12.73
2022-11-08T18:34:33.439Z,12.48
2022-11-08T18:37:00.046Z,12.63
2022-11-08T18:39:26.863Z,12.57
2022-11-08T18:41:53.516Z,12.41
2022-11-08T18:44:20.081Z,12.53
2022-11-08T18:46:46.808Z,12.59
2022-11-08T18:49:14.689Z,12.53
2022-11-08T18:51:41.465Z,12.54
2022-11-08T18:54:08.069Z,12.57
2022-11-08T18:56:36.224Z,12.54
2022-11-08T18:59:03.002Z,12.60
2022-11-08T19:01:29.758Z,12.57
2022-11-08T19:03:56.393Z,12.59
2022-11-08T19:06:24.335Z,12.49
2022-11-08T19:08:50.859Z,12.52
2022-11-08T19:11:17.568Z,12.29
2022-11-08T19:13:44.125Z,12.52
2022-11-08T19:16:13.288Z,12.53
2022-11-08T19:18:40.367Z,12.53
2022-11-08T19:21:09.401Z,12.51
2022-11-08T19:23:37.297Z,12.50
2022-11-08T19:26:05.600Z,12.33
2022-11-08T19:28:35.009Z,12.49
2022-11-08T19:31:01.920Z,11.80
2022-11-08T19:33:30.452Z,12.12
2022-11-08T19:36:00.783Z,12.50
2022-11-08T19:38:27.438Z,12.55
2022-11-08T19:40:55.339Z,12.11
2022-11-08T19:43:22.163Z,12.53
2022-11-08T19:45:53.131Z,12.52
2022-11-08T19:48:20.018Z,12.55
2022-11-08T19:50:46.890Z,12.60
2022-11-08T19:53:14.267Z,12.59
2022-11-08T19:55:40.777Z,12.59
2022-11-08T19:58:08.909Z,12.61
2022-11-08T20:00:36.865Z,12.62
2022-11-08T20:03:03.611Z,12.72
2022-11-08T20:05:30.294Z,12.40
2022-11-08T20:07:56.927Z,12.69
2022-11-08T20:10:23.653Z,12.73
2022-11-08T20:12:50.230Z,12.70
2022-11-08T20:15:18.159Z,12.39
2022-11-08T20:17:45.081Z,12.77
2022-11-08T20:20:12.599Z,12.21
2022-11-08T20:22:41.068Z,12.76
2022-11-08T20:25:08.779Z,13.07
2022-11-08T20:27:35.418Z,13.25
2022-11-08T20:30:01.987Z,13.32
2022-11-08T20:32:29.929Z,13.43
2022-11-08T20:34:58.705Z,13.44
2022-11-08T20:37:25.443Z,13.54
2022-11-08T20:39:51.989Z,13.45
2022-11-08T20:42:18.795Z,13.64
2022-11-08T20:44:45.473Z,13.71
2022-11-08T20:47:12.270Z,13.68
2022-11-08T20:49:40.227Z,13.93
2022-11-08T20:52:06.931Z,13.99
2022-11-08T20:54:33.461Z,14.12
2022-11-08T20:57:00.200Z,14.20
2022-11-08T20:59:26.805Z,14.21
2022-11-08T21:01:53.518Z,14.33
2022-11-08T21:04:20.479Z,14.31
2022-11-08T21:06:48.564Z,14.57
2022-11-08T21:09:36.544Z,14.67
2022-11-08T21:12:02.100Z,14.69
2022-11-08T21:14:28.617Z,14.77
2022-11-08T21:19:41.916Z,14.84
2022-11-08T21:22:09.991Z,14.87
2022-11-08T21:24:36.582Z,14.88
2022-11-08T21:27:03.206Z,14.93
2022-11-08T21:29:29.807Z,14.91
2022-11-08T21:31:56.350Z,14.94
2022-11-08T21:34:25.918Z,14.88
2022-11-08T21:36:56.470Z,14.63
2022-11-08T21:39:25.193Z,14.88
2022-11-08T21:41:51.892Z,14.86
2022-11-08T21:44:18.448Z,14.28
2022-11-08T21:46:45.881Z,14.78
2022-11-08T21:49:13.158Z,14.87
2022-11-08T21:51:39.868Z,14.87
2022-11-08T21:54:06.885Z,14.86
2022-11-08T21:56:34.989Z,14.86
2022-11-08T21:59:01.886Z,14.83
2022-11-08T22:01:30.918Z,14.80
2022-11-08T22:03:58.083Z,14.84
2022-11-08T22:06:24.896Z,14.84
2022-11-08T22:08:51.636Z,14.82
2022-11-08T22:11:18.619Z,14.81
2022-11-08T22:13:46.596Z,14.81
2022-11-08T22:16:13.620Z,14.68
2022-11-08T22:19:03.551Z,14.74
2022-11-08T22:21:29.542Z,14.80
2022-11-08T22:23:56.070Z,14.80
2022-11-08T22:26:22.786Z,14.77
2022-11-08T22:28:50.698Z,14.86
2022-11-08T22:31:18.513Z,14.40
2022-11-08T22:33:45.222Z,14.72
2022-11-08T22:36:11.830Z,14.75
2022-11-08T22:38:38.580Z,14.66
2022-11-08T22:41:05.710Z,14.81
2022-11-08T22:43:33.238Z,14.83
2022-11-08T22:46:01.410Z,14.86
2022-11-08T22:48:28.014Z,14.66
2022-11-08T22:50:54.661Z,14.92
2022-11-08T22:53:21.379Z,14.59
2022-11-08T22:55:48.217Z,14.96
2022-11-08T22:58:16.064Z,14.92
2022-11-08T23:00:42.881Z,14.64
2022-11-08T23:03:11.126Z,14.64
2022-11-08T23:05:37.770Z,14.82
2022-11-08T23:08:04.815Z,14.82
2022-11-08T23:10:31.529Z,14.82
2022-11-08T23:12:58.100Z,14.89
2022-11-08T23:15:24.859Z,14.85
2022-11-08T23:17:51.428Z,14.90
2022-11-08T23:20:19.548Z,14.96
2022-11-08T23:22:46.089Z,14.98
2022-11-08T23:25:12.685Z,14.96
2022-11-08T23:27:39.269Z,14.89
2022-11-08T23:30:07.350Z,14.99
2022-11-08T23:32:34.718Z,14.95
2022-11-08T23:35:01.597Z,14.93
2022-11-08T23:37:29.643Z,14.92
2022-11-08T23:39:56.352Z,14.65
2022-11-08T23:42:22.922Z,14.98
2022-11-08T23:44:49.595Z,14.93
2022-11-08T23:47:16.139Z,14.96
2022-11-08T23:49:42.917Z,14.91
2022-11-08T23:52:09.497Z,14.95
2022-11-08T23:54:37.440Z,15.05
2022-11-08T23:57:04.291Z,14.97
2022-11-08T23:59:30.995Z,15.01
